Time;durP1;ratioP1;P1;durP2;ratioP2;P2;SDS_P1;SDS_P2;PMS_P1;PMS_P2;Temp;Humidity;BMP_temperature;BMP_pressure;BME280_temperature;BME280_humidity;BME280_pressure;Samples;Min_cycle;Max_cycle;Signal;HPM_P1;HPM_P2
2022/12/27 00:01:25;;;;;;;1.03;0.40;;;;;;;;;;5063958;27;86379;-58
2022/12/27 00:03:54;;;;;;;1.37;0.50;;;;;;;;;;5063472;27;88136;-58
2022/12/27 00:06:23;;;;;;;0.50;0.40;;;;;;;;;;5062803;27;87012;-58
2022/12/27 00:08:51;;;;;;;0.70;0.43;;;;;;;;;;5063143;27;87839;-58
2022/12/27 00:11:21;;;;;;;0.30;0.30;;;;;;;;;;5063777;27;87002;-58
2022/12/27 00:13:50;;;;;;;2.00;0.73;;;;;;;;;;5062953;27;88224;-58
2022/12/27 00:16:20;;;;;;;0.30;0.30;;;;;;;;;;5063172;27;87977;-58
2022/12/27 00:18:49;;;;;;;0.30;0.30;;;;;;;;;;5063203;27;87279;-58
2022/12/27 00:21:17;;;;;;;3.30;0.43;;;;;;;;;;5063271;27;87553;-58
2022/12/27 00:23:47;;;;;;;0.40;0.40;;;;;;;;;;5066484;27;88160;-58
2022/12/27 00:26:16;;;;;;;0.33;0.33;;;;;;;;;;5075974;27;88849;-63
2022/12/27 00:28:45;;;;;;;0.93;0.47;;;;;;;;;;5074371;27;87067;-62
2022/12/27 00:31:14;;;;;;;1.10;0.90;;;;;;;;;;5077172;27;87088;-58
2022/12/27 00:33:42;;;;;;;2.07;1.20;;;;;;;;;;5062785;27;90019;-58
2022/12/27 00:36:12;;;;;;;2.57;1.17;;;;;;;;;;5063106;27;89267;-59
2022/12/27 00:38:41;;;;;;;0.83;0.63;;;;;;;;;;5069233;27;87057;-58
2022/12/27 00:41:09;;;;;;;1.40;0.87;;;;;;;;;;5062796;27;87141;-58
2022/12/27 00:43:37;;;;;;;4.00;0.70;;;;;;;;;;5062170;27;88139;-59
2022/12/27 00:46:07;;;;;;;1.03;0.80;;;;;;;;;;5060419;27;87922;-58
2022/12/27 00:48:36;;;;;;;0.60;0.60;;;;;;;;;;5063094;27;86944;-59
2022/12/27 00:51:05;;;;;;;0.63;0.37;;;;;;;;;;5065066;27;87027;-59
2022/12/27 00:53:33;;;;;;;1.10;0.90;;;;;;;;;;5062445;27;89065;-59
2022/12/27 00:56:02;;;;;;;2.70;0.70;;;;;;;;;;5062135;27;88396;-59
2022/12/27 00:58:30;;;;;;;0.60;0.50;;;;;;;;;;5042524;28;87937;-58
2022/12/27 01:01:05;;;;;;;0.40;0.40;;;;;;;;;;5042418;28;87006;-58
2022/12/27 01:03:35;;;;;;;0.27;0.27;;;;;;;;;;5050296;27;88569;-59
2022/12/27 01:06:07;;;;;;;0.90;0.50;;;;;;;;;;5060014;27;87820;-59
2022/12/27 01:08:35;;;;;;;0.60;0.47;;;;;;;;;;5062780;27;87018;-58
2022/12/27 01:11:04;;;;;;;0.60;0.60;;;;;;;;;;5062581;27;86987;-59
2022/12/27 01:13:32;;;;;;;1.50;0.57;;;;;;;;;;5062219;27;88143;-58
2022/12/27 01:16:00;;;;;;;0.97;0.40;;;;;;;;;;5062716;27;87861;-58
2022/12/27 01:18:29;;;;;;;2.07;0.60;;;;;;;;;;5069719;27;86977;-59
2022/12/27 01:20:59;;;;;;;0.50;0.40;;;;;;;;;;5069907;27;87076;-59
2022/12/27 01:23:27;;;;;;;1.70;0.40;;;;;;;;;;5065344;27;89267;-59
2022/12/27 01:25:59;;;;;;;1.43;0.70;;;;;;;;;;5061350;27;89831;-58
2022/12/27 01:28:28;;;;;;;0.30;0.30;;;;;;;;;;5067399;27;88447;-58
2022/12/27 01:30:56;;;;;;;0.80;0.33;;;;;;;;;;5068820;27;88536;-59
2022/12/27 01:33:25;;;;;;;0.60;0.40;;;;;;;;;;5071623;27;88193;-58
2022/12/27 01:35:53;;;;;;;0.40;0.30;;;;;;;;;;5062322;27;89073;-58
2022/12/27 01:38:23;;;;;;;0.30;0.30;;;;;;;;;;5062090;27;87852;-59
2022/12/27 01:40:51;;;;;;;0.77;0.40;;;;;;;;;;5071071;27;87612;-57
2022/12/27 01:43:19;;;;;;;0.97;0.50;;;;;;;;;;5068745;27;88879;-57
2022/12/27 01:45:47;;;;;;;0.73;0.37;;;;;;;;;;5068427;27;87800;-58
2022/12/27 01:48:18;;;;;;;0.50;0.43;;;;;;;;;;5060539;27;87956;-57
2022/12/27 01:50:47;;;;;;;0.50;0.50;;;;;;;;;;5069439;27;87034;-59
2022/12/27 01:53:16;;;;;;;0.93;0.37;;;;;;;;;;5079652;27;87907;-57
2022/12/27 01:55:47;;;;;;;0.63;0.40;;;;;;;;;;5063729;27;87811;-57
2022/12/27 01:58:16;;;;;;;2.93;0.40;;;;;;;;;;5074742;27;86968;-58
2022/12/27 02:00:45;;;;;;;0.67;0.63;;;;;;;;;;5067976;27;87561;-58
2022/12/27 02:03:14;;;;;;;0.50;0.30;;;;;;;;;;5063525;27;88152;-57
2022/12/27 02:05:43;;;;;;;0.53;0.40;;;;;;;;;;5064642;27;87782;-57
2022/12/27 02:08:15;;;;;;;1.33;0.50;;;;;;;;;;5074037;27;87008;-57
2022/12/27 02:10:44;;;;;;;0.40;0.40;;;;;;;;;;5081847;27;86967;-57
2022/12/27 02:13:14;;;;;;;0.63;0.47;;;;;;;;;;5077469;27;88963;-58
2022/12/27 02:15:42;;;;;;;0.97;0.50;;;;;;;;;;5061473;27;88755;-58
2022/12/27 02:18:11;;;;;;;0.30;0.30;;;;;;;;;;5064019;27;87125;-57
2022/12/27 02:20:43;;;;;;;2.77;0.40;;;;;;;;;;5071118;27;87065;-57
2022/12/27 02:26:15;;;;;;;1.40;0.50;;;;;;;;;;5054435;27;87902;-57
2022/12/27 02:28:51;;;;;;;0.33;0.30;;;;;;;;;;5067833;27;86998;-57
2022/12/27 02:31:20;;;;;;;1.17;0.50;;;;;;;;;;5062278;27;86187;-57
2022/12/27 02:33:49;;;;;;;3.77;0.40;;;;;;;;;;5061877;27;88091;-58
2022/12/27 02:36:18;;;;;;;0.73;0.30;;;;;;;;;;5060078;27;87562;-58
2022/12/27 02:38:48;;;;;;;0.30;0.30;;;;;;;;;;5044287;27;87931;-57
2022/12/27 02:55:22;;;;;;;0.30;0.30;;;;;;;;;;5070326;27;88297;-58
2022/12/27 02:57:52;;;;;;;0.83;0.40;;;;;;;;;;5040722;27;87925;-57
2022/12/27 03:03:27;;;;;;;0.93;0.83;;;;;;;;;;5060334;27;87051;-57
2022/12/27 03:08:55;;;;;;;0.63;0.40;;;;;;;;;;5057977;27;88901;-58
2022/12/27 03:17:00;;;;;;;0.30;0.30;;;;;;;;;;5047353;27;88123;-58
2022/12/27 03:27:43;;;;;;;1.70;0.37;;;;;;;;;;5043834;27;88336;-57
2022/12/27 03:33:14;;;;;;;4.60;0.40;;;;;;;;;;5024790;28;88332;-58
2022/12/27 03:35:42;;;;;;;0.30;0.30;;;;;;;;;;5041220;27;87124;-58
2022/12/27 03:38:11;;;;;;;0.30;0.30;;;;;;;;;;5040108;27;88264;-57
2022/12/27 03:43:09;;;;;;;0.70;0.63;;;;;;;;;;5053868;27;88996;-58
2022/12/27 03:43:30;;;;;;;0.63;0.40;;;;;;;;;;5063545;27;87018;-58
2022/12/27 03:48:49;;;;;;;0.47;0.30;;;;;;;;;;5061860;27;86950;-57
2022/12/27 03:51:20;;;;;;;0.57;0.40;;;;;;;;;;5062411;27;87827;-58
2022/12/27 03:53:48;;;;;;;1.90;0.40;;;;;;;;;;5043339;27;87052;-58
2022/12/27 03:56:17;;;;;;;1.23;0.40;;;;;;;;;;5047558;27;87056;-58
2022/12/27 03:58:45;;;;;;;2.00;0.40;;;;;;;;;;5061068;27;89026;-58
2022/12/27 04:01:13;;;;;;;0.47;0.40;;;;;;;;;;5063209;27;88873;-58
2022/12/27 04:03:42;;;;;;;0.50;0.30;;;;;;;;;;5063641;27;87153;-58
2022/12/27 04:06:12;;;;;;;0.83;0.30;;;;;;;;;;5062858;27;87095;-58
2022/12/27 04:36:22;;;;;;;0.40;0.40;;;;;;;;;;5064463;27;86933;-58
2022/12/27 04:38:52;;;;;;;0.53;0.37;;;;;;;;;;5073303;27;87104;-58
2022/12/27 04:55:18;;;;;;;0.33;0.33;;;;;;;;;;5066981;27;90082;-58
2022/12/27 04:57:46;;;;;;;0.20;0.20;;;;;;;;;;5081315;27;87033;-58
2022/12/27 05:03:01;;;;;;;2.70;0.37;;;;;;;;;;5081275;27;89280;-58
2022/12/27 05:05:29;;;;;;;0.20;0.20;;;;;;;;;;5082118;27;87753;-58
2022/12/27 05:16:17;;;;;;;1.07;0.40;;;;;;;;;;5063681;27;87749;-58
2022/12/27 05:18:45;;;;;;;0.23;0.23;;;;;;;;;;5082325;27;88042;-58
2022/12/27 05:21:13;;;;;;;0.60;0.60;;;;;;;;;;5082147;27;87082;-58
2022/12/27 05:26:34;;;;;;;0.30;0.30;;;;;;;;;;5069231;27;88904;-59
2022/12/27 05:29:02;;;;;;;0.40;0.40;;;;;;;;;;5062339;27;87132;-58
2022/12/27 05:31:30;;;;;;;0.27;0.27;;;;;;;;;;5062131;27;87014;-58
2022/12/27 05:33:59;;;;;;;1.10;0.33;;;;;;;;;;5065698;27;89172;-58
2022/12/27 05:36:27;;;;;;;0.40;0.30;;;;;;;;;;5081781;27;88811;-58
2022/12/27 05:38:55;;;;;;;0.80;0.37;;;;;;;;;;5064860;27;88002;-58
2022/12/27 05:41:24;;;;;;;1.33;0.40;;;;;;;;;;5068655;27;87281;-60
2022/12/27 05:43:53;;;;;;;0.40;0.40;;;;;;;;;;5079805;27;89140;-59
2022/12/27 05:46:22;;;;;;;0.30;0.30;;;;;;;;;;5080146;27;89841;-61
2022/12/27 05:48:50;;;;;;;0.10;0.10;;;;;;;;;;5080584;27;87127;-59
2022/12/27 05:51:19;;;;;;;0.50;0.40;;;;;;;;;;5081949;27;87063;-59
2022/12/27 05:53:47;;;;;;;0.30;0.30;;;;;;;;;;5082477;27;88095;-59
2022/12/27 05:56:16;;;;;;;0.63;0.10;;;;;;;;;;5077558;27;88440;-58
2022/12/27 05:58:44;;;;;;;1.03;0.57;;;;;;;;;;5068964;27;88827;-59
2022/12/27 06:01:15;;;;;;;0.27;0.20;;;;;;;;;;5071030;27;88216;-59
2022/12/27 06:03:43;;;;;;;0.20;0.20;;;;;;;;;;5077048;27;87865;-59
2022/12/27 06:06:11;;;;;;;2.83;0.50;;;;;;;;;;5081591;27;87637;-59
2022/12/27 06:08:40;;;;;;;0.60;0.43;;;;;;;;;;5068754;27;87917;-59
2022/12/27 06:11:09;;;;;;;0.30;0.30;;;;;;;;;;5074916;27;87018;-59
2022/12/27 06:13:37;;;;;;;0.83;0.57;;;;;;;;;;5081083;27;88372;-59
2022/12/27 06:16:06;;;;;;;0.63;0.30;;;;;;;;;;5068166;27;89669;-59
2022/12/27 06:18:37;;;;;;;0.20;0.20;;;;;;;;;;5065097;27;87093;-59
2022/12/27 06:21:05;;;;;;;0.30;0.30;;;;;;;;;;5061824;27;87030;-59
2022/12/27 06:23:34;;;;;;;0.47;0.47;;;;;;;;;;5061307;27;89028;-59
2022/12/27 06:26:04;;;;;;;0.37;0.37;;;;;;;;;;5065828;27;88754;-59
2022/12/27 06:28:33;;;;;;;0.43;0.40;;;;;;;;;;5081630;27;87128;-59
2022/12/27 06:31:01;;;;;;;1.40;0.40;;;;;;;;;;5081402;27;87018;-59
2022/12/27 06:33:30;;;;;;;0.10;0.10;;;;;;;;;;5080197;27;90153;-59
2022/12/27 06:35:59;;;;;;;0.30;0.30;;;;;;;;;;5068158;27;89882;-59
2022/12/27 06:38:28;;;;;;;0.30;0.30;;;;;;;;;;5066500;27;87097;-59
2022/12/27 06:41:00;;;;;;;0.30;0.30;;;;;;;;;;5064941;27;87297;-59
2022/12/27 06:43:29;;;;;;;0.30;0.30;;;;;;;;;;5081053;27;89177;-59
2022/12/27 06:45:57;;;;;;;0.30;0.30;;;;;;;;;;5080506;27;88831;-59
2022/12/27 06:48:25;;;;;;;1.80;0.30;;;;;;;;;;5068739;27;87056;-59
2022/12/27 06:50:54;;;;;;;0.93;0.50;;;;;;;;;;5066208;27;86382;-59
2022/12/27 06:53:23;;;;;;;0.90;0.37;;;;;;;;;;5076212;27;89055;-60
2022/12/27 06:55:52;;;;;;;0.23;0.20;;;;;;;;;;5063429;27;87847;-59
2022/12/27 06:58:20;;;;;;;0.40;0.40;;;;;;;;;;5080793;27;88032;-59
2022/12/27 07:00:48;;;;;;;0.87;0.50;;;;;;;;;;5080550;27;87067;-59
2022/12/27 07:03:17;;;;;;;0.30;0.30;;;;;;;;;;5079194;27;88027;-59
2022/12/27 07:05:45;;;;;;;0.57;0.20;;;;;;;;;;5077378;27;89103;-60
2022/12/27 07:08:14;;;;;;;0.20;0.20;;;;;;;;;;5060085;27;86992;-59
2022/12/27 07:10:43;;;;;;;0.47;0.47;;;;;;;;;;5061468;27;86982;-59
2022/12/27 07:13:12;;;;;;;1.90;0.40;;;;;;;;;;5063230;27;89285;-59
2022/12/27 07:15:40;;;;;;;1.40;0.40;;;;;;;;;;5060952;27;88978;-59
2022/12/27 07:18:09;;;;;;;0.70;0.50;;;;;;;;;;5069379;27;87427;-59
2022/12/27 07:20:37;;;;;;;0.30;0.30;;;;;;;;;;5078881;27;86989;-60
2022/12/27 07:23:05;;;;;;;0.53;0.53;;;;;;;;;;5071313;27;89988;-59
2022/12/27 07:25:33;;;;;;;1.57;0.50;;;;;;;;;;5059851;27;89795;-59
2022/12/27 07:28:03;;;;;;;0.50;0.40;;;;;;;;;;5060464;27;87169;-59
2022/12/27 07:30:32;;;;;;;0.20;0.20;;;;;;;;;;5048941;27;88715;-59
2022/12/27 07:33:00;;;;;;;0.30;0.30;;;;;;;;;;5041029;27;89170;-60
2022/12/27 07:35:29;;;;;;;1.13;0.40;;;;;;;;;;5047613;27;88835;-60
2022/12/27 07:37:57;;;;;;;0.40;0.40;;;;;;;;;;5058380;27;86982;-60
2022/12/27 07:40:25;;;;;;;1.73;0.50;;;;;;;;;;5041791;27;86206;-60
2022/12/27 07:42:54;;;;;;;0.33;0.33;;;;;;;;;;5039863;27;89141;-60
2022/12/27 07:45:23;;;;;;;1.00;0.43;;;;;;;;;;5057899;27;88002;-60
2022/12/27 07:47:52;;;;;;;1.43;0.40;;;;;;;;;;5053902;27;88041;-60
2022/12/27 07:50:20;;;;;;;0.30;0.30;;;;;;;;;;5041243;27;86916;-59
2022/12/27 07:52:49;;;;;;;0.33;0.20;;;;;;;;;;5051616;27;87643;-60
2022/12/27 07:55:17;;;;;;;0.40;0.40;;;;;;;;;;5063341;27;88656;-60
2022/12/27 07:57:45;;;;;;;0.40;0.40;;;;;;;;;;5061695;27;87087;-59
2022/12/27 08:00:14;;;;;;;0.70;0.43;;;;;;;;;;5062002;27;87350;-59
2022/12/27 08:02:45;;;;;;;2.37;0.40;;;;;;;;;;5044020;27;88910;-60
2022/12/27 08:05:14;;;;;;;0.37;0.33;;;;;;;;;;5044759;27;86582;-59
2022/12/27 08:07:42;;;;;;;0.77;0.20;;;;;;;;;;5043741;27;86974;-60
2022/12/27 08:10:10;;;;;;;0.40;0.20;;;;;;;;;;5045230;27;87162;-59
2022/12/27 08:12:39;;;;;;;0.40;0.40;;;;;;;;;;5058018;27;89042;-60
2022/12/27 08:15:08;;;;;;;0.20;0.20;;;;;;;;;;5059402;27;89835;-59
2022/12/27 08:17:37;;;;;;;0.73;0.70;;;;;;;;;;5045257;27;87022;-60
2022/12/27 08:20:07;;;;;;;1.60;0.57;;;;;;;;;;5060282;27;87069;-59
2022/12/27 08:22:36;;;;;;;0.13;0.13;;;;;;;;;;5042306;28;88070;-59
2022/12/27 08:25:04;;;;;;;0.30;0.30;;;;;;;;;;5054246;27;87803;-60
2022/12/27 08:27:33;;;;;;;0.63;0.40;;;;;;;;;;5062414;27;87042;-60
2022/12/27 08:30:01;;;;;;;0.40;0.40;;;;;;;;;;5044758;27;88353;-62
2022/12/27 08:32:30;;;;;;;0.50;0.50;;;;;;;;;;5042308;27;89457;-61
2022/12/27 08:34:58;;;;;;;0.20;0.20;;;;;;;;;;5047933;27;88833;-59
2022/12/27 08:37:48;;;;;;;0.40;0.40;;;;;;;;;;5043106;27;88248;-61
2022/12/27 08:40:16;;;;;;;0.20;0.20;;;;;;;;;;5044219;27;87064;-60
2022/12/27 08:42:45;;;;;;;1.77;0.40;;;;;;;;;;5056946;27;89198;-60
2022/12/27 08:45:13;;;;;;;0.50;0.47;;;;;;;;;;5043584;27;88931;-59
2022/12/27 08:47:41;;;;;;;0.47;0.20;;;;;;;;;;5043472;27;87131;-61
2022/12/27 08:50:10;;;;;;;0.63;0.40;;;;;;;;;;5052266;27;87019;-61
2022/12/27 08:52:38;;;;;;;0.30;0.30;;;;;;;;;;5047655;27;89307;-60
2022/12/27 08:55:08;;;;;;;1.00;0.30;;;;;;;;;;5042876;27;88974;-60
2022/12/27 08:57:37;;;;;;;1.50;0.40;;;;;;;;;;5042387;27;87069;-60
2022/12/27 09:00:07;;;;;;;0.40;0.40;;;;;;;;;;5043222;27;87066;-60
2022/12/27 09:02:35;;;;;;;0.30;0.30;;;;;;;;;;5043740;27;89135;-59
2022/12/27 09:05:04;;;;;;;0.47;0.40;;;;;;;;;;5059754;27;89826;-61
2022/12/27 09:07:32;;;;;;;2.73;0.30;;;;;;;;;;5062094;27;87138;-62
2022/12/27 09:10:01;;;;;;;0.20;0.20;;;;;;;;;;5060629;27;86868;-61
2022/12/27 09:12:31;;;;;;;0.30;0.30;;;;;;;;;;5042959;27;91148;-61
2022/12/27 09:14:59;;;;;;;1.10;0.40;;;;;;;;;;5060457;27;87898;-59
2022/12/27 09:17:27;;;;;;;0.30;0.30;;;;;;;;;;5060436;27;87091;-61
2022/12/27 09:19:56;;;;;;;1.60;0.53;;;;;;;;;;5042401;27;86247;-62
2022/12/27 09:22:24;;;;;;;0.20;0.20;;;;;;;;;;5053769;27;88997;-62
2022/12/27 09:24:52;;;;;;;0.30;0.30;;;;;;;;;;5045626;27;87942;-61
2022/12/27 09:27:21;;;;;;;0.33;0.33;;;;;;;;;;5043818;27;88013;-61
2022/12/27 09:29:50;;;;;;;0.57;0.40;;;;;;;;;;5051003;27;87051;-61
2022/12/27 09:32:19;;;;;;;0.33;0.33;;;;;;;;;;5041787;27;89074;-61
2022/12/27 09:34:47;;;;;;;0.30;0.30;;;;;;;;;;5042602;27;87989;-61
2022/12/27 09:37:15;;;;;;;0.30;0.27;;;;;;;;;;5042668;27;87035;-61
2022/12/27 09:39:44;;;;;;;0.43;0.43;;;;;;;;;;5043707;27;86908;-61
2022/12/27 09:42:15;;;;;;;0.77;0.40;;;;;;;;;;5061397;27;89186;-61
2022/12/27 09:45:07;;;;;;;1.00;0.50;;;;;;;;;;5049207;27;86316;-61
2022/12/27 09:47:39;;;;;;;2.03;0.40;;;;;;;;;;5042236;27;87010;-61
2022/12/27 09:50:10;;;;;;;0.50;0.50;;;;;;;;;;5051225;27;87079;-61
2022/12/27 09:52:41;;;;;;;0.30;0.30;;;;;;;;;;5057166;27;89057;-61
2022/12/27 09:55:12;;;;;;;0.57;0.30;;;;;;;;;;5061214;27;88913;-61
2022/12/27 09:57:41;;;;;;;0.57;0.33;;;;;;;;;;5060050;27;87144;-61
2022/12/27 10:00:15;;;;;;;0.20;0.20;;;;;;;;;;5058948;27;87092;-61
2022/12/27 10:02:44;;;;;;;0.93;0.40;;;;;;;;;;5051038;27;88034;-62
2022/12/27 10:05:15;;;;;;;0.73;0.30;;;;;;;;;;5056321;27;88893;-61
2022/12/27 10:07:51;;;;;;;0.50;0.50;;;;;;;;;;5042265;27;88568;-61
2022/12/27 10:10:22;;;;;;;0.60;0.60;;;;;;;;;;5042401;27;86348;-60
2022/12/27 10:12:57;;;;;;;1.03;0.70;;;;;;;;;;5041023;28;89112;-61
2022/12/27 10:15:29;;;;;;;0.60;0.40;;;;;;;;;;5047501;27;87793;-60
2022/12/27 10:18:01;;;;;;;0.40;0.30;;;;;;;;;;5061216;27;87994;-61
2022/12/27 10:20:32;;;;;;;0.60;0.60;;;;;;;;;;5059731;27;86986;-61
2022/12/27 10:23:01;;;;;;;0.17;0.17;;;;;;;;;;5049662;27;89084;-61
2022/12/27 10:25:33;;;;;;;0.20;0.20;;;;;;;;;;5080584;27;88953;-61
2022/12/27 10:28:02;;;;;;;0.33;0.33;;;;;;;;;;5075373;27;87071;-60
2022/12/27 10:30:32;;;;;;;0.40;0.40;;;;;;;;;;5061370;27;87020;-61
2022/12/27 10:33:00;;;;;;;0.33;0.33;;;;;;;;;;5061078;27;88153;-61
2022/12/27 10:35:29;;;;;;;0.30;0.30;;;;;;;;;;5056783;27;88881;-61
2022/12/27 10:38:00;;;;;;;0.63;0.30;;;;;;;;;;5059586;27;87129;-61
2022/12/27 10:40:29;;;;;;;0.30;0.30;;;;;;;;;;5059246;27;87063;-60
2022/12/27 10:43:02;;;;;;;0.97;0.60;;;;;;;;;;5060674;27;90059;-60
2022/12/27 10:45:33;;;;;;;0.50;0.50;;;;;;;;;;5056557;27;88814;-61
2022/12/27 10:48:15;;;;;;;0.20;0.20;;;;;;;;;;5057057;27;87068;-58
2022/12/27 10:50:47;;;;;;;0.40;0.40;;;;;;;;;;5056599;27;87111;-61
2022/12/27 10:53:29;;;;;;;1.50;0.30;;;;;;;;;;5068339;27;88079;-59
2022/12/27 10:56:06;;;;;;;0.30;0.30;;;;;;;;;;5061386;27;87826;-58
2022/12/27 10:58:36;;;;;;;0.33;0.33;;;;;;;;;;5060868;27;86997;-61
2022/12/27 11:01:06;;;;;;;0.80;0.40;;;;;;;;;;5061686;27;86211;-59
2022/12/27 11:03:35;;;;;;;0.77;0.40;;;;;;;;;;5061018;27;88137;-59
2022/12/27 11:06:04;;;;;;;0.33;0.33;;;;;;;;;;5060909;27;87754;-58
2022/12/27 11:08:33;;;;;;;0.43;0.30;;;;;;;;;;5061417;27;88665;-59
2022/12/27 11:11:12;;;;;;;0.20;0.20;;;;;;;;;;5060732;27;87057;-58
2022/12/27 11:13:41;;;;;;;0.30;0.30;;;;;;;;;;5060454;27;87215;-58
2022/12/27 11:16:16;;;;;;;1.37;0.40;;;;;;;;;;5060203;27;89272;-57
2022/12/27 11:18:46;;;;;;;0.37;0.37;;;;;;;;;;5060562;27;87114;-57
2022/12/27 11:21:14;;;;;;;0.40;0.40;;;;;;;;;;5060459;27;87129;-57
2022/12/27 11:23:55;;;;;;;0.30;0.30;;;;;;;;;;5059859;27;88160;-60
2022/12/27 11:26:25;;;;;;;1.63;0.40;;;;;;;;;;5060482;27;86626;-58
2022/12/27 11:28:54;;;;;;;1.60;0.50;;;;;;;;;;5064091;27;87707;-58
2022/12/27 11:31:34;;;;;;;2.00;0.53;;;;;;;;;;5064541;27;87008;-58
2022/12/27 11:34:04;;;;;;;0.50;0.33;;;;;;;;;;5063655;27;89061;-58
2022/12/27 11:36:33;;;;;;;1.87;0.50;;;;;;;;;;5063885;27;87172;-59
2022/12/27 11:39:02;;;;;;;0.53;0.53;;;;;;;;;;5063886;27;87120;-59
2022/12/27 11:41:33;;;;;;;0.67;0.37;;;;;;;;;;5063914;27;87017;-58
2022/12/27 11:44:02;;;;;;;0.40;0.40;;;;;;;;;;5064041;27;88397;-58
2022/12/27 11:46:32;;;;;;;1.53;0.40;;;;;;;;;;5063545;27;87041;-59
2022/12/27 11:49:01;;;;;;;0.80;0.40;;;;;;;;;;5063643;27;87039;-58
2022/12/27 11:51:37;;;;;;;0.30;0.30;;;;;;;;;;5064029;27;86282;-58
2022/12/27 11:54:32;;;;;;;0.50;0.50;;;;;;;;;;5062750;27;88560;-58
2022/12/27 11:57:01;;;;;;;0.47;0.40;;;;;;;;;;5027262;27;88506;-58
2022/12/27 11:59:33;;;;;;;0.33;0.33;;;;;;;;;;5063360;27;87848;-58
2022/12/27 12:02:17;;;;;;;0.87;0.30;;;;;;;;;;5063526;27;87097;-58
2022/12/27 12:05:10;;;;;;;0.77;0.30;;;;;;;;;;5063337;27;88051;-58
2022/12/27 12:07:44;;;;;;;0.20;0.20;;;;;;;;;;5063034;27;88870;-58
2022/12/27 12:10:17;;;;;;;0.60;0.40;;;;;;;;;;5062902;27;87480;-58
2022/12/27 12:12:50;;;;;;;1.47;0.50;;;;;;;;;;5063092;27;87083;-58
2022/12/27 12:15:27;;;;;;;0.73;0.50;;;;;;;;;;5062955;27;88323;-56
2022/12/27 12:17:59;;;;;;;0.30;0.30;;;;;;;;;;5063395;27;87678;-57
2022/12/27 12:20:51;;;;;;;0.53;0.30;;;;;;;;;;5063410;27;87157;-57
2022/12/27 12:23:23;;;;;;;3.03;0.40;;;;;;;;;;5043798;27;87049;-57
2022/12/27 12:26:15;;;;;;;0.40;0.33;;;;;;;;;;5062628;27;89423;-58
2022/12/27 12:28:50;;;;;;;0.50;0.43;;;;;;;;;;5043432;27;88814;-57
2022/12/27 12:31:40;;;;;;;0.27;0.23;;;;;;;;;;5063060;27;87742;-57
2022/12/27 12:34:13;;;;;;;0.37;0.30;;;;;;;;;;5063224;27;87024;-57
2022/12/27 12:36:45;;;;;;;2.10;0.70;;;;;;;;;;5063156;27;88248;-57
2022/12/27 12:39:23;;;;;;;0.40;0.40;;;;;;;;;;5062233;27;87792;-57
2022/12/27 12:41:56;;;;;;;0.37;0.33;;;;;;;;;;5062875;27;86940;-57
2022/12/27 12:44:48;;;;;;;0.47;0.47;;;;;;;;;;5063571;27;86354;-57
2022/12/27 12:47:24;;;;;;;1.90;0.30;;;;;;;;;;5046962;27;87697;-57
2022/12/27 12:50:05;;;;;;;0.40;0.40;;;;;;;;;;5061450;27;88122;-58
2022/12/27 12:52:49;;;;;;;0.73;0.43;;;;;;;;;;5061925;27;87923;-57
2022/12/27 12:55:28;;;;;;;0.50;0.30;;;;;;;;;;5062835;27;87045;-58
2022/12/27 12:58:08;;;;;;;0.30;0.27;;;;;;;;;;5061757;27;88263;-57
2022/12/27 13:00:43;;;;;;;0.30;0.30;;;;;;;;;;5062315;27;89073;-60
2022/12/27 13:03:30;;;;;;;1.00;0.53;;;;;;;;;;5062586;27;87084;-57
2022/12/27 13:06:01;;;;;;;0.20;0.20;;;;;;;;;;5062727;27;86979;-58
2022/12/27 13:08:31;;;;;;;0.30;0.30;;;;;;;;;;5062317;27;88307;-58
2022/12/27 13:11:08;;;;;;;0.43;0.43;;;;;;;;;;5062771;27;88989;-58
2022/12/27 13:13:40;;;;;;;0.67;0.30;;;;;;;;;;5058505;27;87108;-56
2022/12/27 13:16:13;;;;;;;0.40;0.27;;;;;;;;;;5042399;27;87041;-54
2022/12/27 13:18:43;;;;;;;48.20;21.37;;;;;;;;;;5041233;28;88878;-56
2022/12/27 13:21:15;;;;;;;75.53;37.87;;;;;;;;;;5052660;27;88625;-57
2022/12/27 13:23:46;;;;;;;92.60;48.83;;;;;;;;;;5055927;27;87090;-55
2022/12/27 13:26:19;;;;;;;214.97;104.53;;;;;;;;;;5073998;27;86938;-58
2022/12/27 13:28:50;;;;;;;139.53;72.87;;;;;;;;;;5054005;27;88445;-58
2022/12/27 13:31:23;;;;;;;118.10;55.47;;;;;;;;;;5039647;27;89091;-58
2022/12/27 13:33:54;;;;;;;106.07;53.93;;;;;;;;;;5071697;27;86968;-57
2022/12/27 13:36:25;;;;;;;105.20;50.00;;;;;;;;;;5079561;27;86272;-58
2022/12/27 13:39:11;;;;;;;78.53;39.43;;;;;;;;;;5060743;27;88154;-58
2022/12/27 13:41:45;;;;;;;64.03;38.23;;;;;;;;;;5050178;27;89004;-58
2022/12/27 13:44:22;;;;;;;58.17;36.37;;;;;;;;;;5060427;27;88021;-54
2022/12/27 13:47:08;;;;;;;68.10;35.07;;;;;;;;;;5050330;27;87094;-58
2022/12/27 13:49:54;;;;;;;57.27;34.60;;;;;;;;;;5039620;27;88046;-60
2022/12/27 13:52:30;;;;;;;67.07;33.20;;;;;;;;;;5058815;27;87893;-58
2022/12/27 13:55:07;;;;;;;60.63;29.10;;;;;;;;;;5060221;27;87150;-58
2022/12/27 13:57:53;;;;;;;50.70;27.07;;;;;;;;;;5060505;27;87313;-59
2022/12/27 14:00:24;;;;;;;39.90;25.20;;;;;;;;;;5060783;27;88069;-59
2022/12/27 14:03:04;;;;;;;30.73;17.43;;;;;;;;;;5061799;27;87960;-59
2022/12/27 14:05:53;;;;;;;31.33;18.23;;;;;;;;;;5063234;27;87219;-58
2022/12/27 14:08:23;;;;;;;32.00;20.53;;;;;;;;;;5060700;27;87042;-58
2022/12/27 14:10:52;;;;;;;37.10;21.87;;;;;;;;;;5059829;27;88970;-58
2022/12/27 14:13:29;;;;;;;40.70;22.03;;;;;;;;;;5060385;27;89910;-57
2022/12/27 14:16:14;;;;;;;30.27;18.23;;;;;;;;;;5061137;27;87007;-58
2022/12/27 14:18:54;;;;;;;25.73;16.03;;;;;;;;;;5059401;27;87010;-58
2022/12/27 14:21:29;;;;;;;25.43;16.07;;;;;;;;;;5059612;27;89248;-58
2022/12/27 14:24:01;;;;;;;20.30;12.83;;;;;;;;;;5060293;27;88261;-58
2022/12/27 14:26:40;;;;;;;27.17;12.90;;;;;;;;;;5060180;27;87210;-58
2022/12/27 14:29:26;;;;;;;23.50;11.50;;;;;;;;;;5060906;27;86481;-58
2022/12/27 14:32:09;;;;;;;17.83;10.40;;;;;;;;;;5059916;27;87013;-58
2022/12/27 14:34:53;;;;;;;17.13;9.53;;;;;;;;;;5059691;27;88033;-58
2022/12/27 14:37:41;;;;;;;19.97;9.73;;;;;;;;;;5059583;27;88053;-58
2022/12/27 14:40:33;;;;;;;20.27;10.33;;;;;;;;;;5026907;27;87209;-58
2022/12/27 14:43:25;;;;;;;12.63;7.87;;;;;;;;;;5059561;27;87053;-58
2022/12/27 14:46:06;;;;;;;12.40;6.63;;;;;;;;;;5060868;27;88068;-58
2022/12/27 14:49:02;;;;;;;14.53;6.87;;;;;;;;;;5040672;28;86965;-57
2022/12/27 14:51:49;;;;;;;11.83;5.87;;;;;;;;;;5045223;27;87607;-57
2022/12/27 14:54:39;;;;;;;9.37;6.17;;;;;;;;;;5077917;27;87902;-58
2022/12/27 14:57:10;;;;;;;10.53;5.70;;;;;;;;;;5075977;27;89007;-58
2022/12/27 14:59:42;;;;;;;12.40;5.17;;;;;;;;;;5061016;27;87059;-58
2022/12/27 15:02:22;;;;;;;12.07;5.27;;;;;;;;;;5063516;27;87000;-58
2022/12/27 15:04:58;;;;;;;8.40;3.80;;;;;;;;;;5063675;27;88761;-58
2022/12/27 15:07:44;;;;;;;6.33;4.00;;;;;;;;;;5053128;27;89918;-57
2022/12/27 15:10:16;;;;;;;8.23;3.93;;;;;;;;;;5077249;27;87142;-58
2022/12/27 15:12:46;;;;;;;6.17;3.70;;;;;;;;;;5085919;27;87055;-57
2022/12/27 15:15:33;;;;;;;4.80;2.93;;;;;;;;;;5079262;27;89106;-57
2022/12/27 15:18:05;;;;;;;4.47;3.10;;;;;;;;;;5053261;27;88850;-59
2022/12/27 15:20:40;;;;;;;5.03;2.30;;;;;;;;;;5062988;27;87036;-58
2022/12/27 15:23:13;;;;;;;3.87;2.63;;;;;;;;;;5063581;27;86256;-58
2022/12/27 15:25:46;;;;;;;4.60;2.60;;;;;;;;;;5064646;27;90453;-57
2022/12/27 15:28:15;;;;;;;3.63;1.83;;;;;;;;;;5064394;27;87637;-58
2022/12/27 15:30:45;;;;;;;3.20;2.30;;;;;;;;;;5062374;27;88072;-58
2022/12/27 15:33:16;;;;;;;2.70;1.83;;;;;;;;;;5063570;27;87719;-59
2022/12/27 15:35:49;;;;;;;3.27;2.37;;;;;;;;;;5063219;27;88155;-57
2022/12/27 15:38:17;;;;;;;4.60;2.53;;;;;;;;;;5058981;27;87777;-57
2022/12/27 15:41:11;;;;;;;4.37;2.20;;;;;;;;;;5065963;27;87064;-57
2022/12/27 15:43:50;;;;;;;3.17;1.40;;;;;;;;;;5062959;27;87231;-58
2022/12/27 15:46:23;;;;;;;1.87;1.23;;;;;;;;;;5063032;27;90047;-57
2022/12/27 15:49:03;;;;;;;1.37;1.17;;;;;;;;;;5063249;27;88863;-58
2022/12/27 15:51:33;;;;;;;3.03;1.50;;;;;;;;;;5063651;27;87716;-58
2022/12/27 15:54:11;;;;;;;2.40;1.90;;;;;;;;;;5063290;27;87153;-58
2022/12/27 15:56:51;;;;;;;2.80;1.30;;;;;;;;;;5063178;27;90313;-58
2022/12/27 15:59:40;;;;;;;2.17;1.30;;;;;;;;;;5063531;27;88791;-58
2022/12/27 16:02:24;;;;;;;4.13;1.90;;;;;;;;;;5063655;27;87214;-57
2022/12/27 16:04:55;;;;;;;2.17;1.00;;;;;;;;;;5063549;27;87080;-58
2022/12/27 16:07:37;;;;;;;1.57;1.10;;;;;;;;;;5063157;27;89231;-58
2022/12/27 16:10:24;;;;;;;1.57;0.67;;;;;;;;;;5063490;27;89127;-58
2022/12/27 16:12:53;;;;;;;2.93;1.00;;;;;;;;;;5061992;27;86967;-58
2022/12/27 16:15:42;;;;;;;1.70;1.27;;;;;;;;;;5063780;27;86340;-57
2022/12/27 16:18:11;;;;;;;1.93;1.20;;;;;;;;;;5062666;27;89096;-57
2022/12/27 16:20:40;;;;;;;1.00;0.90;;;;;;;;;;5063124;27;88950;-57
2022/12/27 16:23:10;;;;;;;1.83;0.80;;;;;;;;;;5062501;27;88496;-58
2022/12/27 16:25:39;;;;;;;1.13;0.80;;;;;;;;;;5063547;27;86972;-58
2022/12/27 16:28:08;;;;;;;1.23;0.90;;;;;;;;;;5062334;27;87032;-57
2022/12/27 16:30:39;;;;;;;1.37;0.80;;;;;;;;;;5062218;27;89098;-57
2022/12/27 16:33:14;;;;;;;1.67;0.80;;;;;;;;;;5062224;27;87073;-57
2022/12/27 16:35:43;;;;;;;1.90;1.17;;;;;;;;;;5062603;27;87061;-57
2022/12/27 16:38:17;;;;;;;2.93;0.60;;;;;;;;;;5062530;27;89233;-57
2022/12/27 16:40:45;;;;;;;1.70;1.03;;;;;;;;;;5063459;27;87777;-57
2022/12/27 16:43:31;;;;;;;1.37;0.77;;;;;;;;;;5062318;27;87889;-57
2022/12/27 16:46:06;;;;;;;2.57;1.03;;;;;;;;;;5062689;27;87036;-57
2022/12/27 16:48:40;;;;;;;1.00;0.73;;;;;;;;;;5062318;27;90219;-57